Time;durP1;ratioP1;P1;durP2;ratioP2;P2;SDS_P1;SDS_P2;PMS_P1;PMS_P2;Temp;Humidity;BMP_temperature;BMP_pressure;BME280_temperature;BME280_humidity;BME280_pressure;Samples;Min_cycle;Max_cycle;Signal;HPM_P1;HPM_P2
2022/04/10 00:00:23;;;;;;;9.20;3.00;;;;;;;-145.18;100.00;46734.63;4972340;28;20038;-68
2022/04/10 00:02:49;;;;;;;17.57;3.60;;;;;;;-145.18;100.00;46728.75;4972046;28;20031;-68
2022/04/10 00:05:14;;;;;;;16.50;3.87;;;;;;;-145.18;100.00;46722.91;4970721;28;20436;-68
2022/04/10 00:07:39;;;;;;;12.27;2.90;;;;;;;-145.18;100.00;46717.03;4971904;28;20122;-67
2022/04/10 00:10:06;;;;;;;14.03;2.73;;;;;;;-145.18;100.00;46717.03;4972361;28;20038;-68
2022/04/10 00:12:35;;;;;;;11.23;3.10;;;;;;;-145.18;100.00;46719.00;4971951;28;20101;-67
2022/04/10 00:15:01;;;;;;;8.63;3.58;;;;;;;-145.18;100.00;46709.22;4971719;28;20022;-68
2022/04/10 00:17:26;;;;;;;9.43;3.35;;;;;;;-145.18;100.00;46705.31;4971974;28;20035;-68
2022/04/10 00:19:52;;;;;;;13.70;5.17;;;;;;;-145.18;100.00;46724.84;4972162;28;20431;-68
2022/04/10 00:22:18;;;;;;;12.83;3.13;;;;;;;-145.18;100.00;46726.81;4971420;28;20053;-68
2022/04/10 00:24:43;;;;;;;14.53;3.73;;;;;;;-145.18;100.00;46728.75;4971716;28;20265;-68
2022/04/10 00:27:13;;;;;;;9.63;2.57;;;;;;;-145.18;100.00;46732.66;4971579;28;20485;-68
2022/04/10 00:29:40;;;;;;;12.23;2.75;;;;;;;-145.18;100.00;46724.84;4972080;28;20089;-67
2022/04/10 00:32:05;;;;;;;9.23;2.55;;;;;;;-145.18;100.00;46726.81;4970143;28;20031;-68
2022/04/10 00:34:31;;;;;;;7.13;2.80;;;;;;;-145.18;100.00;46732.66;4971988;28;20026;-68
2022/04/10 00:36:56;;;;;;;14.97;3.40;;;;;;;-145.18;100.00;46736.56;4971174;28;20063;-68
2022/04/10 00:39:22;;;;;;;9.93;2.63;;;;;;;-145.18;100.00;46736.56;4954532;28;20043;-67
2022/04/10 00:41:49;;;;;;;11.30;2.20;;;;;;;-145.18;100.00;46732.66;4971493;28;20089;-68
2022/04/10 00:44:15;;;;;;;15.20;2.72;;;;;;;-145.18;100.00;46738.53;4971500;28;20026;-68
2022/04/10 00:46:41;;;;;;;6.75;2.20;;;;;;;-145.18;100.00;46728.75;4971438;28;20495;-68
2022/04/10 00:49:07;;;;;;;15.00;2.28;;;;;;;-145.18;100.00;46736.56;4971721;28;20027;-67
2022/04/10 00:51:46;;;;;;;12.05;2.58;;;;;;;-145.18;100.00;46732.66;4971270;28;20050;-68
2022/04/10 00:54:17;;;;;;;13.80;2.88;;;;;;;-145.18;100.00;46728.75;4971274;28;20607;-68
2022/04/10 00:56:44;;;;;;;10.10;2.42;;;;;;;-145.18;100.00;46722.91;4971364;28;20499;-68
2022/04/10 00:59:10;;;;;;;6.50;2.95;;;;;;;-145.18;100.00;46734.63;4971538;28;20038;-68
2022/04/10 01:01:36;;;;;;;9.23;2.60;;;;;;;-145.18;100.00;46736.56;4971197;28;20037;-68
2022/04/10 01:04:04;;;;;;;12.95;3.30;;;;;;;-145.18;100.00;46740.47;4971427;28;20030;-68
2022/04/10 01:06:32;;;;;;;14.90;3.33;;;;;;;-145.18;100.00;46740.47;4971244;28;20138;-68
2022/04/10 01:08:57;;;;;;;16.42;2.13;;;;;;;-145.18;100.00;46740.47;4971616;28;20106;-68
2022/04/10 01:11:24;;;;;;;10.52;3.40;;;;;;;-145.18;100.00;46740.47;4971287;28;20557;-68
2022/04/10 01:13:52;;;;;;;14.03;3.33;;;;;;;-145.18;100.00;46732.66;4970421;28;20143;-68
2022/04/10 01:16:17;;;;;;;10.95;2.60;;;;;;;-145.18;100.00;46736.56;4969953;28;20537;-68
2022/04/10 01:18:43;;;;;;;11.03;2.70;;;;;;;-145.18;100.00;46736.56;4971239;28;20054;-68
2022/04/10 01:21:11;;;;;;;10.43;3.03;;;;;;;-145.18;100.00;46738.53;4971488;28;20046;-68
2022/04/10 01:23:38;;;;;;;11.40;3.13;;;;;;;-145.18;100.00;46738.53;4970892;28;20039;-68
2022/04/10 01:26:03;;;;;;;10.05;2.92;;;;;;;-145.18;100.00;46726.81;4971297;28;20027;-68
2022/04/10 01:28:28;;;;;;;8.03;2.20;;;;;;;-145.18;100.00;46738.53;4971091;28;20042;-68
2022/04/10 01:30:54;;;;;;;11.90;2.80;;;;;;;-145.18;100.00;46732.66;4969996;28;20487;-68
2022/04/10 01:33:19;;;;;;;11.30;2.50;;;;;;;-145.18;100.00;46732.66;4970815;28;20065;-68
2022/04/10 01:35:45;;;;;;;8.00;2.37;;;;;;;-145.18;100.00;46738.53;4971146;28;20041;-68
2022/04/10 01:38:12;;;;;;;8.53;2.57;;;;;;;-145.18;100.00;46726.81;4970555;28;20038;-68
2022/04/10 01:40:38;;;;;;;7.78;2.70;;;;;;;-145.18;100.00;46734.63;4971392;28;20045;-67
2022/04/10 01:43:04;;;;;;;8.45;2.40;;;;;;;-145.18;100.00;46734.63;4970232;28;20117;-68
2022/04/10 01:45:29;;;;;;;7.07;2.05;;;;;;;-145.18;100.00;46728.75;4971085;28;20070;-68
2022/04/10 01:47:55;;;;;;;7.50;2.53;;;;;;;-145.18;100.00;46726.81;4970748;28;20130;-68
2022/04/10 01:50:22;;;;;;;10.07;3.13;;;;;;;-145.18;100.00;46726.81;4953610;28;20046;-67
2022/04/10 01:52:48;;;;;;;11.00;2.25;;;;;;;-145.18;100.00;46724.84;4970993;28;20051;-67
2022/04/10 01:55:13;;;;;;;6.97;2.47;;;;;;;-145.18;100.00;46724.84;4971081;28;20067;-68
2022/04/10 01:57:39;;;;;;;8.17;2.47;;;;;;;-145.18;100.00;46724.84;4970713;28;20122;-68
2022/04/10 02:00:05;;;;;;;11.07;3.73;;;;;;;-145.18;100.00;46719.00;4970829;28;20491;-68
2022/04/10 02:02:31;;;;;;;8.70;3.08;;;;;;;-145.18;100.00;46724.84;5259987;22;20054;-70
2022/04/10 02:04:56;;;;;;;9.23;2.47;;;;;;;-145.18;100.00;46722.91;4969068;28;20070;-69
2022/04/10 02:07:21;;;;;;;10.23;3.30;;;;;;;-145.18;100.00;46724.84;4973641;28;20034;-69
2022/04/10 02:09:47;;;;;;;14.97;3.10;;;;;;;-145.18;100.00;46722.91;4974208;28;20113;-69
2022/04/10 02:12:12;;;;;;;9.17;2.83;;;;;;;-145.18;100.00;46719.00;4973614;28;20398;-69
2022/04/10 02:14:38;;;;;;;8.73;2.87;;;;;;;-145.18;100.00;46717.03;4974342;28;20479;-69
2022/04/10 02:17:03;;;;;;;9.13;2.97;;;;;;;-145.18;100.00;46711.19;4956344;28;20190;-69
2022/04/10 02:19:29;;;;;;;17.87;3.10;;;;;;;-145.18;100.00;46705.31;4974482;28;20042;-69
2022/04/10 02:21:57;;;;;;;9.93;3.17;;;;;;;-145.18;100.00;46699.47;4973773;28;21072;-69
2022/04/10 02:24:23;;;;;;;8.85;2.83;;;;;;;-145.18;100.00;46707.28;4974121;28;20045;-70
2022/04/10 02:26:48;;;;;;;8.57;3.40;;;;;;;-145.18;100.00;46705.31;4973481;28;20402;-69
2022/04/10 02:29:14;;;;;;;8.77;2.47;;;;;;;-145.18;100.00;46699.47;4974325;28;20031;-69
2022/04/10 02:31:39;;;;;;;9.87;3.20;;;;;;;-145.18;100.00;46703.38;4973565;28;20031;-69
2022/04/10 02:34:04;;;;;;;13.67;3.70;;;;;;;-145.18;100.00;46699.47;4956521;28;20519;-69
2022/04/10 02:36:30;;;;;;;11.10;3.80;;;;;;;-145.18;100.00;46705.31;4974018;28;20034;-69
2022/04/10 02:38:55;;;;;;;14.30;3.23;;;;;;;-145.18;100.00;46695.56;4973453;28;20034;-69
2022/04/10 02:41:20;;;;;;;6.30;2.70;;;;;;;-145.18;100.00;46701.41;4973930;28;20086;-69
2022/04/10 02:43:46;;;;;;;8.07;2.83;;;;;;;-145.18;100.00;46687.75;4973408;28;20419;-69
2022/04/10 02:46:11;;;;;;;10.57;3.00;;;;;;;-145.18;100.00;46685.78;4973606;28;20030;-69
2022/04/10 02:48:37;;;;;;;4.83;2.37;;;;;;;-145.18;100.00;46689.69;4973389;28;20058;-69
2022/04/10 02:51:02;;;;;;;7.67;2.83;;;;;;;-145.18;100.00;46693.59;4973721;28;20018;-69
2022/04/10 02:53:28;;;;;;;17.30;2.70;;;;;;;-145.18;100.00;46685.78;4973290;28;20058;-69
2022/04/10 02:55:54;;;;;;;11.43;3.37;;;;;;;-145.18;100.00;46683.84;4973508;28;20098;-69
2022/04/10 02:58:19;;;;;;;6.53;2.00;;;;;;;-145.18;100.00;46677.97;4973009;28;20050;-69
2022/04/10 03:00:44;;;;;;;11.70;2.40;;;;;;;-145.18;100.00;46681.88;4973630;28;20031;-69
2022/04/10 03:03:10;;;;;;;11.23;2.77;;;;;;;-145.18;100.00;46679.94;4972774;28;20050;-69
2022/04/10 03:05:35;;;;;;;8.13;2.90;;;;;;;-145.18;100.00;46681.88;4973543;28;20078;-69
2022/04/10 03:08:00;;;;;;;13.13;2.83;;;;;;;-145.18;100.00;46676.03;4972874;28;20080;-69
2022/04/10 03:10:26;;;;;;;8.07;2.80;;;;;;;-145.18;100.00;46681.88;4973535;28;20395;-69
2022/04/10 03:12:51;;;;;;;10.43;2.70;;;;;;;-145.18;100.00;46668.22;4972600;28;20037;-69
2022/04/10 03:15:17;;;;;;;16.80;2.90;;;;;;;-145.18;100.00;46672.13;4973382;28;20122;-69
2022/04/10 03:17:42;;;;;;;9.37;2.90;;;;;;;-145.18;100.00;46674.06;4955177;28;20039;-69
2022/04/10 03:20:08;;;;;;;8.73;2.80;;;;;;;-145.18;100.00;46672.13;4972852;28;20434;-68
2022/04/10 03:22:34;;;;;;;12.43;3.10;;;;;;;-145.18;100.00;46670.16;4972618;28;20041;-69
2022/04/10 03:24:59;;;;;;;7.77;2.77;;;;;;;-145.18;100.00;46670.16;4973047;28;20035;-69
2022/04/10 03:27:24;;;;;;;12.23;3.57;;;;;;;-145.18;100.00;46664.31;4972743;28;20046;-69
2022/04/10 03:29:50;;;;;;;12.13;2.40;;;;;;;-145.18;100.00;46662.34;4955730;28;20038;-69
2022/04/10 03:32:15;;;;;;;9.03;2.53;;;;;;;-145.18;100.00;46660.41;4972500;28;20084;-69
2022/04/10 03:34:40;;;;;;;10.83;2.60;;;;;;;-145.18;100.00;46660.41;4972761;28;20034;-69
2022/04/10 03:37:06;;;;;;;9.37;2.63;;;;;;;-145.18;100.00;46662.34;4972179;28;20035;-69
2022/04/10 03:39:31;;;;;;;6.70;2.50;;;;;;;-145.18;100.00;46654.53;4955793;28;20395;-69
2022/04/10 03:41:57;;;;;;;10.87;2.57;;;;;;;-145.18;100.00;46660.41;4972255;28;20042;-68
2022/04/10 03:44:22;;;;;;;7.43;2.57;;;;;;;-145.18;100.00;46660.41;4972467;28;20031;-68
2022/04/10 03:46:47;;;;;;;11.70;2.97;;;;;;;-145.18;100.00;46656.50;4972567;28;20038;-68
2022/04/10 03:49:13;;;;;;;9.63;2.40;;;;;;;-145.18;100.00;46658.44;4972453;28;20173;-68
2022/04/10 03:51:38;;;;;;;8.13;2.47;;;;;;;-145.18;100.00;46650.63;4972777;28;20041;-68
2022/04/10 03:54:04;;;;;;;11.50;3.10;;;;;;;-145.18;100.00;46656.50;4971850;28;20035;-68
2022/04/10 03:56:29;;;;;;;13.93;3.23;;;;;;;-145.18;100.00;46654.53;4972517;28;20038;-68
2022/04/10 03:58:54;;;;;;;16.47;3.00;;;;;;;-145.18;100.00;46658.44;4972298;28;20031;-68
2022/04/10 04:01:20;;;;;;;8.03;2.13;;;;;;;-145.18;100.00;46660.41;4972629;28;20394;-68
2022/04/10 04:03:45;;;;;;;6.60;2.40;;;;;;;-145.18;100.00;46658.44;4967583;28;20046;-68
2022/04/10 04:06:10;;;;;;;5.70;2.23;;;;;;;-145.18;100.00;46656.50;4972297;28;20034;-68
2022/04/10 04:08:36;;;;;;;8.70;2.47;;;;;;;-145.18;100.00;46660.41;4972195;28;20475;-68
2022/04/10 04:11:01;;;;;;;8.63;3.00;;;;;;;-145.18;100.00;46660.41;4972144;28;20495;-68
2022/04/10 04:13:27;;;;;;;10.27;2.57;;;;;;;-145.18;100.00;46660.41;4971776;28;20452;-68
2022/04/10 04:15:52;;;;;;;10.67;3.20;;;;;;;-145.18;100.00;46662.34;4972327;28;20031;-68
2022/04/10 04:18:18;;;;;;;8.13;2.57;;;;;;;-145.18;100.00;46666.25;4970259;28;20037;-68
2022/04/10 04:20:43;;;;;;;9.73;2.97;;;;;;;-145.18;100.00;46658.44;4972451;28;20125;-68
2022/04/10 04:23:08;;;;;;;5.47;2.60;;;;;;;-145.18;100.00;46660.41;4971459;28;20372;-68
2022/04/10 04:25:34;;;;;;;9.37;2.67;;;;;;;-145.18;100.00;46662.34;4972379;28;20023;-68
2022/04/10 04:27:59;;;;;;;15.00;3.13;;;;;;;-145.18;100.00;46662.34;4970643;28;20027;-68
2022/04/10 04:30:25;;;;;;;8.77;2.70;;;;;;;-145.18;100.00;46664.31;4970984;28;20015;-68
2022/04/10 04:32:53;;;;;;;10.77;2.60;;;;;;;-145.18;100.00;46664.31;4971285;28;20046;-68
2022/04/10 04:35:18;;;;;;;7.88;2.90;;;;;;;-145.18;100.00;46660.41;4970818;28;20035;-68
2022/04/10 04:37:43;;;;;;;9.50;2.90;;;;;;;-145.18;100.00;46660.41;4970603;28;20117;-69
2022/04/10 04:40:10;;;;;;;10.63;3.53;;;;;;;-145.18;100.00;46658.44;4971593;28;20038;-68
2022/04/10 04:42:37;;;;;;;11.80;3.15;;;;;;;-145.18;100.00;46658.44;4971660;28;20085;-68
2022/04/10 04:45:03;;;;;;;15.70;2.65;;;;;;;-145.18;100.00;46656.50;4971586;28;20591;-68
2022/04/10 04:47:28;;;;;;;7.25;2.45;;;;;;;-145.18;100.00;46660.41;4971422;28;20038;-68
2022/04/10 04:49:55;;;;;;;7.30;2.70;;;;;;;-145.18;100.00;46656.50;4971715;28;20094;-68
2022/04/10 04:52:20;;;;;;;10.55;3.50;;;;;;;-145.18;100.00;46662.34;4969387;28;20129;-67
2022/04/10 04:54:46;;;;;;;10.97;2.93;;;;;;;-145.18;100.00;46662.34;4967521;28;20516;-67
2022/04/10 04:57:11;;;;;;;10.13;2.60;;;;;;;-145.18;100.00;46662.34;4969793;28;20489;-67
2022/04/10 04:59:36;;;;;;;11.73;2.67;;;;;;;-145.18;100.00;46654.53;4971691;28;20678;-67
2022/04/10 05:02:02;;;;;;;13.73;2.90;;;;;;;-145.18;100.00;46660.41;4973370;28;20038;-67
2022/04/10 05:04:27;;;;;;;9.00;2.70;;;;;;;-145.18;100.00;46662.34;4990844;28;20038;-67
2022/04/10 05:06:53;;;;;;;12.93;2.97;;;;;;;-145.18;100.00;46656.50;4990672;28;20484;-67
2022/04/10 05:09:18;;;;;;;11.37;3.00;;;;;;;-145.18;100.00;46654.53;4990798;28;20035;-67
2022/04/10 05:11:43;;;;;;;6.53;3.00;;;;;;;-145.18;100.00;46656.50;4990895;28;20031;-67
2022/04/10 05:14:09;;;;;;;11.23;2.73;;;;;;;-145.18;100.00;46652.59;4986051;28;20117;-67
2022/04/10 05:16:34;;;;;;;9.80;2.50;;;;;;;-145.18;100.00;46656.50;4971402;28;20042;-67
2022/04/10 05:18:59;;;;;;;9.87;2.67;;;;;;;-145.18;100.00;46652.59;4970976;28;20487;-67
2022/04/10 05:21:25;;;;;;;12.83;3.20;;;;;;;-145.18;100.00;46656.50;4954095;28;20433;-67
2022/04/10 05:23:50;;;;;;;8.50;2.70;;;;;;;-145.18;100.00;46654.53;4970921;28;20031;-67
2022/04/10 05:26:16;;;;;;;11.37;2.73;;;;;;;-145.18;100.00;46654.53;4971256;28;20035;-67
2022/04/10 05:28:41;;;;;;;10.20;2.97;;;;;;;-145.18;100.00;46656.50;4971178;28;20027;-67
2022/04/10 05:31:06;;;;;;;14.03;3.80;;;;;;;-145.18;100.00;46654.53;4974163;28;20400;-67
2022/04/10 05:33:35;;;;;;;9.23;3.30;;;;;;;-145.18;100.00;46656.50;4984156;28;20077;-67
2022/04/10 05:36:01;;;;;;;10.57;3.30;;;;;;;-145.18;100.00;46652.59;4990586;28;20030;-67
2022/04/10 05:38:26;;;;;;;6.10;3.30;;;;;;;-145.18;100.00;46650.63;4990198;28;20044;-67
2022/04/10 05:40:53;;;;;;;10.83;3.40;;;;;;;-145.18;100.00;46652.59;4993645;28;20100;-67
2022/04/10 05:43:22;;;;;;;12.20;3.20;;;;;;;-145.18;100.00;46652.59;4994250;28;20407;-67
2022/04/10 05:45:48;;;;;;;9.70;3.35;;;;;;;-145.18;100.00;46650.63;4990133;28;20035;-67
2022/04/10 05:48:13;;;;;;;12.50;2.93;;;;;;;-145.18;100.00;46652.59;4993842;28;20029;-67
2022/04/10 05:50:39;;;;;;;15.53;2.93;;;;;;;-145.18;100.00;46654.53;4994326;28;20767;-67
2022/04/10 05:53:04;;;;;;;8.13;2.97;;;;;;;-145.18;100.00;46654.53;4986772;28;20399;-67
2022/04/10 05:55:30;;;;;;;6.90;2.80;;;;;;;-145.18;100.00;46656.50;4974974;28;20038;-67
2022/04/10 05:57:56;;;;;;;8.37;2.97;;;;;;;-145.18;100.00;46658.44;4966283;28;20089;-67
2022/04/10 06:00:23;;;;;;;9.93;3.57;;;;;;;-145.18;100.00;46660.41;4994207;28;20034;-68
2022/04/10 06:02:49;;;;;;;10.35;3.30;;;;;;;-145.18;100.00;46660.41;4993094;28;20145;-67
2022/04/10 06:05:15;;;;;;;9.83;3.60;;;;;;;-145.18;100.00;46658.44;4994234;28;20092;-67
2022/04/10 06:07:40;;;;;;;13.20;3.37;;;;;;;-145.18;100.00;46666.25;4970214;28;20133;-67
2022/04/10 06:10:07;;;;;;;12.97;2.53;;;;;;;-145.18;100.00;46662.34;4973707;28;20499;-67
2022/04/10 06:12:32;;;;;;;11.82;3.13;;;;;;;-145.18;100.00;46662.34;4965818;28;20038;-68
2022/04/10 06:14:57;;;;;;;14.53;4.03;;;;;;;-145.18;100.00;46660.41;4937454;28;20039;-67
2022/04/10 06:17:23;;;;;;;10.03;2.73;;;;;;;-145.18;100.00;46660.41;4972198;28;20086;-67
2022/04/10 06:19:49;;;;;;;8.17;2.73;;;;;;;-145.18;100.00;46664.31;4973251;28;20038;-68
2022/04/10 06:22:15;;;;;;;10.40;2.85;;;;;;;-145.18;100.00;46668.22;4974040;28;20391;-67
2022/04/10 06:24:41;;;;;;;7.97;2.50;;;;;;;-145.18;100.00;46668.22;4965367;28;20031;-68
2022/04/10 06:27:06;;;;;;;13.43;2.70;;;;;;;-145.18;100.00;46668.22;4971656;28;20532;-67
2022/04/10 06:29:32;;;;;;;14.67;2.87;;;;;;;-145.18;100.00;46672.13;4973798;28;20063;-68
2022/04/10 06:31:57;;;;;;;9.53;2.73;;;;;;;-145.18;100.00;46668.22;4973646;28;20050;-68
2022/04/10 06:34:23;;;;;;;6.70;2.60;;;;;;;-145.18;100.00;46664.31;4970511;28;20117;-67
2022/04/10 06:36:48;;;;;;;13.27;2.83;;;;;;;-145.18;100.00;46654.53;4973863;28;20506;-69
2022/04/10 06:39:16;;;;;;;9.60;2.50;;;;;;;-145.18;100.00;46646.72;4973740;28;20058;-70
2022/04/10 06:41:42;;;;;;;7.70;2.53;;;;;;;-145.18;100.00;46648.69;4973130;28;20491;-67
2022/04/10 06:44:08;;;;;;;8.63;2.27;;;;;;;-145.18;100.00;46642.81;4973212;28;20344;-70
2022/04/10 06:46:34;;;;;;;8.47;2.67;;;;;;;-145.18;100.00;46631.09;4973460;28;20284;-70
2022/04/10 06:49:00;;;;;;;8.57;3.13;;;;;;;-145.18;100.00;46621.31;4973050;28;20031;-68
2022/04/10 06:51:25;;;;;;;7.53;2.60;;;;;;;-145.18;100.00;46607.66;4973164;28;20031;-70
2022/04/10 06:53:51;;;;;;;8.30;2.80;;;;;;;-145.18;100.00;46597.88;4972921;28;20273;-71
2022/04/10 06:56:16;;;;;;;13.10;3.10;;;;;;;-145.18;100.00;46613.50;4973335;28;20377;-70
2022/04/10 06:58:42;;;;;;;11.67;2.73;;;;;;;-145.18;100.00;46601.78;4972335;28;20287;-70
2022/04/10 07:01:08;;;;;;;6.17;2.83;;;;;;;-145.18;100.00;46593.97;4969630;28;20043;-70
2022/04/10 07:03:33;;;;;;;15.97;3.83;;;;;;;-145.18;100.00;46576.41;4965727;28;20054;-70
2022/04/10 07:05:59;;;;;;;10.37;2.47;;;;;;;-145.18;100.00;46578.34;4972276;28;20039;-71
2022/04/10 07:08:26;;;;;;;7.13;2.37;;;;;;;-145.18;100.00;46568.59;4972877;28;20066;-70
2022/04/10 07:10:52;;;;;;;12.30;2.00;;;;;;;-145.18;100.00;46551.00;4973358;28;20038;-71
2022/04/10 07:13:18;;;;;;;7.97;3.17;;;;;;;-145.18;100.00;46551.00;4972956;28;20269;-71
2022/04/10 07:15:50;;;;;;;8.43;2.00;;;;;;;-145.18;100.00;46576.41;4972484;28;20027;-71
2022/04/10 07:18:15;;;;;;;7.97;2.60;;;;;;;-145.18;100.00;46572.50;4971570;28;20305;-71
2022/04/10 07:20:41;;;;;;;9.87;2.50;;;;;;;-145.18;100.00;46586.16;4972549;28;20653;-71
2022/04/10 07:25:52;;;;;;;6.70;1.93;;;;;;;-145.18;100.00;46582.25;4972113;28;20752;-71
2022/04/10 07:28:18;;;;;;;7.83;1.50;;;;;;;-145.18;100.00;46609.59;4970544;28;20363;-71
2022/04/10 07:30:44;;;;;;;11.87;1.90;;;;;;;-145.18;100.00;46638.91;4972848;28;20757;-71
2022/04/10 07:33:09;;;;;;;6.13;1.40;;;;;;;-145.18;100.00;46615.47;4969835;28;20304;-71
2022/04/10 07:35:35;;;;;;;7.30;2.27;;;;;;;-145.18;100.00;46584.22;4971259;28;20042;-71
2022/04/10 07:38:01;;;;;;;11.73;2.03;;;;;;;-145.18;100.00;46584.22;4971522;28;20132;-71
2022/04/10 07:40:26;;;;;;;19.27;3.27;;;;;;;-145.18;100.00;46570.53;4972048;28;20410;-71
2022/04/10 07:42:52;;;;;;;8.27;2.13;;;;;;;-145.18;100.00;46574.44;4969694;28;20450;-71
2022/04/10 07:48:02;;;;;;;11.33;2.43;;;;;;;-145.18;100.00;46560.78;4970299;28;20041;-71
2022/04/10 07:50:31;;;;;;;8.37;1.77;;;;;;;-145.18;100.00;46566.63;4971750;28;20272;-71
2022/04/10 07:52:56;;;;;;;10.03;2.27;;;;;;;-145.18;100.00;46556.88;4971883;28;20085;-69
2022/04/10 07:55:22;;;;;;;7.53;2.10;;;;;;;-145.18;100.00;46554.91;4986920;28;20273;-69
2022/04/10 07:57:51;;;;;;;12.03;2.70;;;;;;;-145.18;100.00;46570.53;4986313;28;20074;-69
2022/04/10 08:00:17;;;;;;;7.53;1.80;;;;;;;-145.18;100.00;46570.53;4971500;28;20403;-71
2022/04/10 08:02:49;;;;;;;9.13;2.00;;;;;;;-145.18;100.00;46578.34;4958085;28;20816;-70
2022/04/10 08:05:16;;;;;;;11.63;2.30;;;;;;;-145.18;100.00;46572.50;4990094;28;20628;-69
2022/04/10 08:07:44;;;;;;;9.83;1.93;;;;;;;-145.18;100.00;46584.22;4991006;28;20264;-69
2022/04/10 08:10:10;;;;;;;6.17;2.00;;;;;;;-145.18;100.00;46590.06;4991118;28;20273;-71
2022/04/10 08:12:36;;;;;;;7.13;1.93;;;;;;;-145.18;100.00;46599.84;4988728;28;20357;-71
2022/04/10 08:15:03;;;;;;;15.80;2.47;;;;;;;-145.18;100.00;46609.59;4971400;28;20269;-71
2022/04/10 08:17:29;;;;;;;8.40;1.83;;;;;;;-145.18;100.00;46607.66;4972030;28;20038;-71
2022/04/10 08:19:54;;;;;;;8.90;1.80;;;;;;;-145.18;100.00;46607.66;4970955;28;20757;-71
2022/04/10 08:22:26;;;;;;;4.23;1.90;;;;;;;-145.18;100.00;46617.41;4972013;28;20136;-72
2022/04/10 08:24:52;;;;;;;15.53;2.70;;;;;;;-145.18;100.00;46640.88;4971420;28;20034;-72
2022/04/10 08:27:17;;;;;;;11.53;2.07;;;;;;;-145.18;100.00;46658.44;4971968;28;20634;-71
2022/04/10 08:29:43;;;;;;;7.30;2.03;;;;;;;-145.18;100.00;46664.31;4969975;28;20083;-71
2022/04/10 08:32:08;;;;;;;11.53;2.10;;;;;;;-145.18;100.00;46677.97;4971416;28;20035;-71
2022/04/10 08:34:34;;;;;;;7.97;1.97;;;;;;;-145.18;100.00;46656.50;4971080;28;20045;-71
2022/04/10 08:37:05;;;;;;;6.23;1.57;;;;;;;-145.18;100.00;46635.00;4971786;28;20035;-71
2022/04/10 08:39:34;;;;;;;9.53;2.00;;;;;;;-145.18;100.00;46619.38;4970063;28;20038;-72
2022/04/10 08:42:05;;;;;;;9.53;2.30;;;;;;;-145.18;100.00;46668.22;4971367;28;20633;-72
2022/04/10 08:44:31;;;;;;;10.23;2.23;;;;;;;-145.18;100.00;46656.50;4971304;28;20264;-72
2022/04/10 08:46:58;;;;;;;8.33;1.93;;;;;;;-145.18;100.00;46658.44;4970424;28;20280;-72
2022/04/10 08:49:26;;;;;;;7.10;1.27;;;;;;;-145.18;100.00;46691.66;4970866;28;20300;-71
2022/04/10 08:51:53;;;;;;;7.83;1.47;;;;;;;-145.18;100.00;46742.44;4971354;28;20264;-72
2022/04/10 08:54:20;;;;;;;6.33;1.40;;;;;;;-145.18;100.00;46715.09;4971279;28;20272;-72
2022/04/10 08:56:45;;;;;;;12.20;1.73;;;;;;;-145.18;100.00;46732.66;4971756;28;20272;-72
2022/04/10 08:59:11;;;;;;;6.43;1.33;;;;;;;-145.18;100.00;46699.47;4988126;28;20300;-72
2022/04/10 09:01:36;;;;;;;10.27;1.80;;;;;;;-145.18;100.00;46691.66;4973303;28;20117;-73
2022/04/10 09:04:01;;;;;;;7.97;1.60;;;;;;;-145.18;100.00;46732.66;4975675;28;20055;-73
2022/04/10 09:06:27;;;;;;;12.70;2.13;;;;;;;-145.18;100.00;46676.03;4971654;28;20214;-73
2022/04/10 09:09:10;;;;;;;8.17;1.57;;;;;;;-145.18;100.00;46740.47;4971060;28;20043;-73
2022/04/10 09:11:35;;;;;;;6.33;1.60;;;;;;;-145.18;100.00;46724.84;4970458;28;20066;-72
2022/04/10 09:14:00;;;;;;;11.63;1.30;;;;;;;-145.18;100.00;46734.63;4970261;28;20372;-73
2022/04/10 09:16:26;;;;;;;8.73;1.57;;;;;;;-145.18;100.00;46722.91;4973662;28;20049;-73
2022/04/10 09:18:55;;;;;;;7.90;1.30;;;;;;;-145.18;100.00;46756.09;4952127;29;20047;-73
2022/04/10 09:21:28;;;;;;;10.37;1.50;;;;;;;-145.18;100.00;46771.75;4954960;29;20464;-73
2022/04/10 09:24:01;;;;;;;5.23;1.70;;;;;;;-145.18;100.00;46883.09;4953635;29;20265;-73
2022/04/10 09:26:41;;;;;;;5.83;1.27;;;;;;;-145.18;100.00;46982.72;4955046;29;20273;-73
2022/04/10 09:29:06;;;;;;;5.37;0.97;;;;;;;-145.18;100.00;47181.97;4954334;29;20297;-73
2022/04/10 09:31:35;;;;;;;5.60;1.30;;;;;;;-145.18;100.00;46738.53;4956194;29;20749;-73
2022/04/10 09:34:13;;;;;;;6.73;1.30;;;;;;;-145.18;100.00;46859.63;4955073;29;20066;-73
2022/04/10 09:36:39;;;;;;;6.17;1.20;;;;;;;-145.18;100.00;47453.53;4940350;29;20768;-73
2022/04/10 09:39:10;;;;;;;4.83;1.00;;;;;;;-145.18;100.00;47449.63;4955064;29;20650;-73
2022/04/10 09:41:37;;;;;;;9.03;2.67;;;;;;;-145.18;100.00;47213.22;4955763;28;20854;-73
2022/04/10 09:44:12;;;;;;;6.60;1.30;;;;;;;-145.18;100.00;47412.50;4974354;28;20265;-73
2022/04/10 09:46:39;;;;;;;3.75;1.35;;;;;;;-145.18;100.00;47531.69;4974926;28;20277;-73
2022/04/10 09:49:11;;;;;;;8.67;1.33;;;;;;;-145.18;100.00;47539.50;4974460;28;20033;-73
2022/04/10 09:51:36;;;;;;;4.50;1.37;;;;;;;-145.18;100.00;47480.88;4974978;28;20268;-73
2022/04/10 09:54:05;;;;;;;5.27;1.30;;;;;;;-145.18;100.00;47469.16;4974256;28;20364;-73
2022/04/10 09:56:32;;;;;;;7.07;1.27;;;;;;;-145.18;100.00;47404.69;4975182;28;20037;-73
2022/04/10 09:59:00;;;;;;;7.77;1.40;;;;;;;-145.18;100.00;47461.34;4974257;28;20288;-73
2022/04/10 10:01:28;;;;;;;8.23;1.40;;;;;;;-145.18;100.00;47416.41;4965258;28;20269;-73
2022/04/10 10:03:56;;;;;;;6.77;1.00;;;;;;;-145.18;100.00;47426.19;4950229;28;20668;-73
2022/04/10 10:06:21;;;;;;;5.53;1.20;;;;;;;-145.18;100.00;47447.66;4974443;28;20269;-73
2022/04/10 10:08:49;;;;;;;3.87;1.30;;;;;;;-145.18;100.00;47451.56;4974477;28;20269;-73
2022/04/10 10:11:15;;;;;;;13.10;2.13;;;;;;;-145.18;100.00;47449.63;4974594;28;20035;-73
2022/04/10 10:13:41;;;;;;;7.70;1.37;;;;;;;-145.18;100.00;47461.34;4974134;28;20345;-73
2022/04/10 10:16:07;;;;;;;8.47;1.67;;;;;;;-145.18;100.00;47404.69;4974145;28;20046;-73
2022/04/10 10:18:33;;;;;;;6.97;1.67;;;;;;;-145.18;100.00;47367.56;4974003;28;20030;-73
2022/04/10 10:20:58;;;;;;;7.90;1.93;;;;;;;-145.18;100.00;47351.94;4974227;28;20269;-73
2022/04/10 10:23:26;;;;;;;5.40;1.20;;;;;;;-145.18;100.00;47334.34;4973910;28;20034;-74
2022/04/10 10:25:52;;;;;;;4.90;1.97;;;;;;;-145.18;100.00;47334.34;4973181;28;20078;-74
2022/04/10 10:28:27;;;;;;;5.30;1.27;;;;;;;-145.18;100.00;47349.97;4974106;28;20257;-74
2022/04/10 10:31:29;;;;;;;5.77;1.10;;;;;;;-145.18;100.00;47338.25;4974172;28;20113;-74
2022/04/10 10:33:58;;;;;;;11.07;1.90;;;;;;;-145.18;100.00;47344.13;4973789;28;20780;-74
2022/04/10 10:36:26;;;;;;;6.73;1.37;;;;;;;-145.18;100.00;47394.91;4974099;28;20275;-72
2022/04/10 10:38:54;;;;;;;5.30;1.10;;;;;;;-145.18;100.00;47396.88;4973329;28;20296;-72
2022/04/10 10:41:19;;;;;;;4.37;1.37;;;;;;;-145.18;100.00;47373.44;4974344;28;20348;-72
2022/04/10 10:43:46;;;;;;;7.77;1.50;;;;;;;-145.18;100.00;47316.78;4973588;28;20352;-72
2022/04/10 10:46:33;;;;;;;3.33;1.07;;;;;;;-145.18;100.00;47310.91;4973762;28;20026;-72
2022/04/10 10:49:14;;;;;;;4.13;0.90;;;;;;;-145.18;100.00;47367.56;4973473;28;20275;-72
2022/04/10 10:51:43;;;;;;;3.83;0.70;;;;;;;-145.18;100.00;47383.19;4956459;28;20280;-72
2022/04/10 10:54:12;;;;;;;7.37;0.93;;;;;;;-145.18;100.00;47389.06;4955792;28;20323;-73
2022/04/10 10:56:40;;;;;;;2.10;0.60;;;;;;;-145.18;100.00;47432.03;4973616;28;20323;-72
2022/04/10 10:59:21;;;;;;;5.60;0.90;;;;;;;-145.18;100.00;47412.50;4972995;28;20292;-72
2022/04/10 11:02:08;;;;;;;4.80;0.83;;;;;;;-145.18;100.00;47334.34;4985837;28;20370;-72
2022/04/10 11:04:42;;;;;;;3.92;1.00;;;;;;;-145.18;100.00;47312.88;4975199;28;20903;-73
2022/04/10 11:07:20;;;;;;;3.00;1.00;;;;;;;-145.18;100.00;47318.72;4992579;28;20038;-72
2022/04/10 11:09:59;;;;;;;7.23;1.20;;;;;;;-145.18;100.00;47328.50;4992420;28;20276;-72